AirNav   Everest Fuels
 
 701 users online  

2OH7 Pfeiffer Field Airport
Collinsville, Ohio, USA

GOING TO COLLINSVILLE?


FAA INFORMATION EFFECTIVE 10 SEPTEMBER 2020

Location

FAA Identifier: 2OH7
Lat/Long: 39-31-17.3800N 084-37-41.4700W
39-31.289667N 084-37.691167W
39.5214944,-84.6281861
(estimated)
Elevation: 806 ft. / 246 m
From city: 1 mile WNW of COLLINSVILLE, OH
Time zone: UTC -4 (UTC -5 during Standard Time)
Zip code: 45064

Airport Operations

Airport use: Private use. Permission required prior to landing
Activation date: 11/2013
Control tower: no
ARTCC: INDIANAPOLIS CENTER
FSS: DAYTON FLIGHT SERVICE STATION
Attendance: IRREG
Segmented circle: no

Airport Communications

WX AWOS-3PT at OXD (7 nm W): 118.625 (513-273-2032)
WX ASOS at HAO (11 nm SE): 121.425 (513-863-6137)
WX AWOS-3 at MWO (11 nm E): 120.025 (513-422-3505)
WX AWOS-3PT at I67 (17 nm SW): 118.15 (513-569-4964)
WX AWOS-3 at RID (17 nm NW): 121.225 (765-983-1903)
WX AWOS-3 at I68 (18 nm E): 120.55 (513-934-5500)
WX ASOS at MGY (19 nm E): 118.375 (937-885-2171)

Nearby radio navigation aids

VOR radial/distance  VOR name  Freq  Var
CVGr011/30.5CINCINNATI VORTAC117.3004W
DQNr201/31.6DAYTON VOR/DME114.5001W
MXQr282/38.7MIDWEST VOR/DME112.9004W

 
NDB name  Hdg/Dist  Freq  Var  ID
HOOK FIELD283/8.523904WHKF .... -.- ..-.
ONIDA260/14.522304WMW -- .--
BATESVILLE075/31.125405WHLB .... .-.. -...
SPORTYS328/32.924504WPWF .--. .-- ..-.
NEW CASTLE130/38.538506WUWL ..- .-- .-..

Airport Services

Runway Information

Runway 18/36

Dimensions: 1208 x 100 ft. / 368 x 30 m
Surface: turf
RUNWAY 18  RUNWAY 36
Latitude: 39-31.389167N39-31.190000N
Longitude: 084-37.690333W084-37.692000W
Elevation: 806.0 ft.806.0 ft.
Traffic pattern: rightleft

Airport Ownership and Management from official FAA records

Ownership: Privately-owned
Owner: RUSSELL L. PFEIFFER
1991 HARRIS RD.
HAMILTON, OH 45013
Phone 513-726-6889
Manager: RUSSELL L. PFEIFFER
1991 HARRIS RD.
HAMILTON, OH 45013
Phone 513-726-6889

Additional Remarks

FOR CD CTC CINCINNATI APCH AT 859-372-6440

Instrument Procedures

There are no published instrument procedures at 2OH7.

Some nearby airports with instrument procedures:

KOXD - Miami University Airport (7 nm W)
KHAO - Butler County Regional Airport-Hogan Field (11 nm SE)
KMWO - Middletown Regional Airport/Hook Field (11 nm E)
I67 - Cincinnati West Airport (17 nm SW)
KRID - Richmond Municipal Airport (17 nm NW)
I68 - Warren County Airport/John Lane Field (18 nm E)
KMGY - Dayton-Wright Brothers Airport (19 nm E)
 
Loc | Ops | Rwys | IFR | FBO | Links
Com | Nav | Svcs | Stats | Notes
Aerial photo
No photo
 
Airport distance calculator
Flying to Pfeiffer Field Airport? Find the distance to fly.

From to 2OH7

Sunrise and sunset
Times for 22-Sep-2020
 Local
(UTC-4)
 Zulu
(UTC)
Morning civil twilight07:0111:01
Sunrise07:2811:28
Sunset19:3423:34
Evening civil twilight20:0100:01

Current date and time
Zulu (UTC)  22-Sep-2020 04:27:10
Local (UTC-4)  22-Sep-2020 00:27:10
 
METAR
KOXD 
7nm W 
220415Z AUTO 13003KT 10SM CLR 11/09 A3031 RMK AO2 T01090085
KHAO 
11nm SE 
220353Z AUTO 00000KT 10SM CLR 09/07 A3032 RMK AO2 SLP268 T00890072
KMWO 
11nm E 
220415Z AUTO 00000KT 10SM CLR 08/07 A3033 RMK AO2 T00820070
KI67 
17nm SW 
220415Z AUTO 00000KT 10SM CLR 08/06 A3031 RMK AO1
KRID 
17nm NW 
220415Z AUTO 12004KT 10SM CLR 09/06 A3032 RMK AO2
KI68 
18nm E 
220415Z AUTO 12004KT 10SM CLR 13/08 A3032 RMK AO1 T01250083
KMGY 
19nm E 
220353Z AUTO 14006KT 10SM CLR 14/07 A3031 RMK AO2 SLP261 T01390067
TAF
KLUK 
27nm S 
211730Z 2118/2218 13005KT P6SM SKC FM220000 00000KT P6SM SKC FM220600 00000KT 4SM BR FEW250 FM220800 00000KT 2SM BR SCT003 FM221300 00000KT P6SM SCT050
KCVG 
28nm S 
212102Z 2121/2224 13005KT P6SM FEW250 FM212300 11003KT P6SM FEW250 FM221600 VRB04KT P6SM SCT045 FM222300 28003KT P6SM SCT250
KDAY 
30nm NE 
211730Z 2118/2218 14006KT P6SM SKC FM212200 12003KT P6SM SKC FM220600 VRB03KT P6SM SCT250
KFFO 
33nm NE 
211901Z 2119/2301 14006KT 9999 FEW270 QNH3010INS WND 25006KT AFT 2215 TX23/2120Z TN06/2211Z
NOTAMs
Click for the latest NOTAMs
NOTAMs are issued by the DoD/FAA and will open in a separate window not controlled by AirNav.

 

 
 

Would you like to see your business listed on this page?

 If your business provides an interesting product or service to pilots, flight crews, aircraft, or users of the Pfeiffer Field Airport, you should consider listing it here.  To start the listing process, click on the button below
 
Add a business
 

Other Pages about Pfeiffer Field Airport

Update a link
 
Copyright © AirNav, LLC. All rights reserved. Privacy Policy  Contact